Time;durP1;ratioP1;P1;durP2;ratioP2;P2;SDS_P1;SDS_P2;PMS_P1;PMS_P2;Temp;Humidity;BMP_temperature;BMP_pressure;BME280_temperature;BME280_humidity;BME280_pressure;Samples;Min_cycle;Max_cycle;Signal;HPM_P1;HPM_P2
2021/11/09 00:00:36;;;;;;;16.85;11.70;;;5.10;99.90;;;;;;4988202;28;20026;-72
2021/11/09 00:03:09;;;;;;;18.33;12.85;;;5.00;99.90;;;;;;4981023;28;20106;-73
2021/11/09 00:05:35;;;;;;;14.68;12.25;;;5.00;99.90;;;;;;4979758;28;20027;-73
2021/11/09 00:08:05;;;;;;;18.40;13.23;;;5.10;99.90;;;;;;4979675;28;20109;-73
2021/11/09 00:10:31;;;;;;;18.83;12.73;;;4.90;99.90;;;;;;4987680;28;20027;-73
2021/11/09 00:13:03;;;;;;;17.98;12.80;;;4.90;99.90;;;;;;4986188;28;20022;-74
2021/11/09 00:15:30;;;;;;;20.15;12.02;;;4.80;99.90;;;;;;4987591;28;20049;-72
2021/11/09 00:17:58;;;;;;;16.77;11.43;;;4.90;99.90;;;;;;4991099;28;20030;-73
2021/11/09 00:20:27;;;;;;;19.20;12.07;;;4.90;99.90;;;;;;4981945;28;20027;-73
2021/11/09 00:22:53;;;;;;;22.95;13.55;;;5.00;99.90;;;;;;4977410;28;20058;-72
2021/11/09 00:25:20;;;;;;;16.58;12.10;;;5.00;99.90;;;;;;4984187;28;20041;-73
2021/11/09 00:27:46;;;;;;;17.92;13.13;;;5.00;99.90;;;;;;4983858;28;20069;-73
2021/11/09 00:30:14;;;;;;;19.67;12.98;;;5.00;99.90;;;;;;4980233;28;20110;-73
2021/11/09 00:32:44;;;;;;;22.25;13.55;;;4.80;99.90;;;;;;4982649;28;20050;-73
2021/11/09 00:35:12;;;;;;;20.05;13.10;;;4.80;99.90;;;;;;4985984;28;20015;-74
2021/11/09 00:37:39;;;;;;;18.80;13.00;;;4.90;99.90;;;;;;4979286;28;20027;-73
2021/11/09 00:40:05;;;;;;;22.00;13.43;;;4.90;99.90;;;;;;4981847;28;20401;-73
2021/11/09 00:42:31;;;;;;;17.75;12.48;;;5.00;99.90;;;;;;4984134;28;20544;-73
2021/11/09 00:44:56;;;;;;;22.05;15.05;;;4.90;99.90;;;;;;4981453;28;20121;-73
2021/11/09 00:47:22;;;;;;;19.55;14.35;;;4.90;99.90;;;;;;4995607;28;20109;-73
2021/11/09 00:49:48;;;;;;;19.63;13.85;;;4.70;99.90;;;;;;4987275;28;20046;-73
2021/11/09 00:52:14;;;;;;;17.80;13.52;;;4.80;99.90;;;;;;4991370;28;20022;-73
2021/11/09 00:54:40;;;;;;;19.40;15.02;;;4.90;99.90;;;;;;4984375;28;20026;-73
2021/11/09 00:57:06;;;;;;;22.40;14.88;;;4.90;99.90;;;;;;4990634;28;20108;-72
2021/11/09 00:59:32;;;;;;;19.80;14.35;;;4.80;99.90;;;;;;4984111;28;20488;-72
2021/11/09 01:01:58;;;;;;;20.90;15.68;;;4.80;99.90;;;;;;4991062;28;20423;-73
2021/11/09 01:04:23;;;;;;;20.10;13.88;;;4.90;99.90;;;;;;4985509;28;20096;-74
2021/11/09 01:06:49;;;;;;;23.25;14.57;;;4.90;99.90;;;;;;4986082;28;20065;-74
2021/11/09 01:09:15;;;;;;;23.77;15.27;;;4.80;99.90;;;;;;4994164;28;20023;-74
2021/11/09 01:11:40;;;;;;;22.65;15.93;;;4.80;99.90;;;;;;4991774;28;20376;-73
2021/11/09 01:14:07;;;;;;;21.95;14.30;;;4.80;99.90;;;;;;4978312;28;20507;-74
2021/11/09 01:16:33;;;;;;;19.70;13.68;;;4.90;99.90;;;;;;4987004;28;20105;-74
2021/11/09 01:19:04;;;;;;;18.98;12.70;;;4.90;99.90;;;;;;4988383;28;20082;-73
2021/11/09 01:21:31;;;;;;;19.13;15.30;;;4.80;99.90;;;;;;4985177;28;20023;-74
2021/11/09 01:23:57;;;;;;;21.85;14.35;;;4.80;99.90;;;;;;4986759;28;20026;-74
2021/11/09 01:26:23;;;;;;;20.92;13.35;;;4.80;99.90;;;;;;4985560;28;20366;-74
2021/11/09 01:28:51;;;;;;;22.00;13.70;;;4.80;99.90;;;;;;4985239;28;20022;-74
2021/11/09 01:31:17;;;;;;;17.98;12.43;;;4.70;99.90;;;;;;4992578;28;20102;-75
2021/11/09 01:33:43;;;;;;;19.63;12.40;;;4.70;99.90;;;;;;4984760;28;20507;-74
2021/11/09 01:36:10;;;;;;;21.00;13.93;;;4.80;99.90;;;;;;4987133;28;20480;-74
2021/11/09 01:38:36;;;;;;;19.80;12.85;;;4.80;99.90;;;;;;4987277;28;20033;-74
2021/11/09 01:41:04;;;;;;;17.60;12.13;;;4.80;99.90;;;;;;4986712;28;20033;-74
2021/11/09 01:43:30;;;;;;;16.20;11.90;;;4.90;99.90;;;;;;4982584;28;20117;-74
2021/11/09 01:45:58;;;;;;;17.58;12.73;;;4.90;99.90;;;;;;4988188;28;20029;-74
2021/11/09 01:48:24;;;;;;;17.02;12.20;;;4.90;99.90;;;;;;4993236;28;20026;-74
2021/11/09 01:50:58;;;;;;;19.25;12.45;;;4.90;99.90;;;;;;4985764;28;20678;-74
2021/11/09 01:53:26;;;;;;;15.93;11.70;;;4.90;99.90;;;;;;4984303;28;20034;-74
2021/11/09 01:55:54;;;;;;;18.15;11.77;;;4.90;99.90;;;;;;4985016;28;20022;-74
2021/11/09 01:58:20;;;;;;;15.07;11.68;;;4.80;99.90;;;;;;4991374;28;20061;-74
2021/11/09 02:00:50;;;;;;;17.40;12.77;;;4.90;99.90;;;;;;4988944;28;20110;-74
2021/11/09 02:03:16;;;;;;;16.02;12.07;;;4.90;99.90;;;;;;4984143;28;20367;-75
2021/11/09 02:05:42;;;;;;;14.35;11.85;;;4.90;99.90;;;;;;4988347;28;20508;-75
2021/11/09 02:08:08;;;;;;;19.77;12.80;;;4.90;99.90;;;;;;4982817;28;20065;-74
2021/11/09 02:10:36;;;;;;;18.35;13.15;;;4.90;99.90;;;;;;4990641;28;20023;-74
2021/11/09 02:13:02;;;;;;;19.90;13.15;;;4.90;99.90;;;;;;4988752;28;20022;-74
2021/11/09 02:15:30;;;;;;;19.30;13.27;;;4.90;99.90;;;;;;4985487;28;20161;-74
2021/11/09 02:17:57;;;;;;;17.63;12.38;;;4.80;99.90;;;;;;4989402;28;20026;-74
2021/11/09 02:20:26;;;;;;;16.15;12.20;;;4.80;99.90;;;;;;4986074;28;20476;-74
2021/11/09 02:22:52;;;;;;;15.90;12.10;;;4.90;99.90;;;;;;4989845;28;20065;-73
2021/11/09 02:25:20;;;;;;;16.98;12.43;;;4.90;99.90;;;;;;4983383;28;20113;-74
2021/11/09 02:27:46;;;;;;;19.27;12.85;;;4.70;99.90;;;;;;4986150;28;20034;-75
2021/11/09 02:30:14;;;;;;;21.20;11.75;;;4.90;99.90;;;;;;4984311;28;20040;-74
2021/11/09 02:32:41;;;;;;;15.02;11.65;;;4.90;99.90;;;;;;4985736;28;20081;-74
2021/11/09 02:35:08;;;;;;;17.70;11.15;;;5.00;99.90;;;;;;4982823;28;20023;-75
2021/11/09 02:37:34;;;;;;;14.52;10.93;;;5.00;99.90;;;;;;4978405;28;20080;-74
2021/11/09 02:40:00;;;;;;;14.15;10.10;;;5.00;99.90;;;;;;4986789;28;20023;-73
2021/11/09 02:42:36;;;;;;;12.75;9.77;;;5.00;99.90;;;;;;4984484;28;20025;-73
2021/11/09 02:45:13;;;;;;;17.95;10.32;;;5.00;99.90;;;;;;4981242;28;20029;-73
2021/11/09 02:47:53;;;;;;;13.20;9.10;;;5.00;99.90;;;;;;4982132;28;20410;-73
2021/11/09 02:50:22;;;;;;;14.77;10.65;;;5.10;99.90;;;;;;4980423;28;20074;-73
2021/11/09 02:53:10;;;;;;;13.55;9.77;;;5.00;99.90;;;;;;4986784;28;20019;-74
2021/11/09 02:55:46;;;;;;;18.48;11.95;;;5.00;99.90;;;;;;4984540;28;20025;-73
2021/11/09 02:58:28;;;;;;;18.65;13.70;;;4.90;99.90;;;;;;4985451;28;20033;-73
2021/11/09 03:01:05;;;;;;;20.67;14.05;;;4.80;99.90;;;;;;4987080;28;20023;-73
2021/11/09 03:08:49;;;;;;;18.15;10.50;;;4.80;99.90;;;;;;4974260;28;20042;-74
2021/11/09 03:11:16;;;;;;;17.92;12.02;;;4.90;99.90;;;;;;4978692;28;20080;-75
2021/11/09 03:13:48;;;;;;;19.08;11.27;;;4.80;99.90;;;;;;4979418;28;20481;-73
2021/11/09 03:16:14;;;;;;;13.77;10.05;;;4.90;99.90;;;;;;4954699;29;20034;-74
2021/11/09 03:18:46;;;;;;;17.88;10.25;;;4.90;99.90;;;;;;4980706;28;20064;-73
2021/11/09 03:45:26;;;;;;;12.73;9.07;;;4.80;99.90;;;;;;4962105;28;20122;-73
2021/11/09 03:47:55;;;;;;;14.02;9.68;;;4.80;99.90;;;;;;4973587;28;20031;-74
2021/11/09 03:50:24;;;;;;;16.38;10.15;;;4.90;99.90;;;;;;4984460;28;20438;-75
2021/11/09 03:53:02;;;;;;;14.20;9.85;;;4.80;99.90;;;;;;4971807;28;20027;-75
2021/11/09 03:58:07;;;;;;;15.95;9.57;;;5.00;99.90;;;;;;4979681;28;20034;-75
2021/11/09 04:05:45;;;;;;;14.50;10.60;;;4.90;99.90;;;;;;4986078;28;20026;-74
2021/11/09 04:11:14;;;;;;;11.80;9.30;;;4.90;99.90;;;;;;4975336;28;20041;-74
2021/11/09 04:13:49;;;;;;;15.45;11.30;;;4.90;99.90;;;;;;4984906;28;20018;-74
2021/11/09 04:18:54;;;;;;;16.58;10.35;;;4.80;99.90;;;;;;4983727;28;20037;-74
2021/11/09 04:24:19;;;;;;;16.95;9.77;;;4.80;99.90;;;;;;4989909;28;20058;-73
2021/11/09 04:29:47;;;;;;;14.38;9.65;;;4.90;99.90;;;;;;4977153;28;20117;-74
2021/11/09 04:32:30;;;;;;;14.75;9.27;;;4.80;99.90;;;;;;4975242;28;20054;-75
2021/11/09 04:44:32;;;;;;;14.35;10.82;;;4.80;99.90;;;;;;4989626;28;20067;-74
2021/11/09 04:49:12;;;;;;;15.57;10.40;;;4.80;99.90;;;;;;4973714;28;20053;-74
2021/11/09 05:10:39;;;;;;;15.10;11.75;;;4.50;99.90;;;;;;4982315;28;20074;-74
2021/11/09 05:13:05;;;;;;;17.10;12.55;;;4.50;99.90;;;;;;4987220;28;20441;-76
2021/11/09 05:15:30;;;;;;;22.45;13.93;;;4.20;99.90;;;;;;4988985;28;20048;-74
2021/11/09 05:17:57;;;;;;;18.10;11.73;;;4.30;99.90;;;;;;4981784;28;20026;-73
2021/11/09 05:20:27;;;;;;;16.02;11.90;;;4.40;99.90;;;;;;4982567;28;20030;-75
2021/11/09 05:22:53;;;;;;;19.63;13.02;;;4.40;99.90;;;;;;4987391;28;20076;-75
2021/11/09 05:25:19;;;;;;;32.75;24.13;;;4.40;99.90;;;;;;4973681;28;20034;-72
2021/11/09 05:27:46;;;;;;;27.38;22.48;;;4.40;99.90;;;;;;4967643;28;20035;-74
2021/11/09 05:30:13;;;;;;;38.88;27.75;;;4.40;99.90;;;;;;4970921;28;20046;-73
2021/11/09 05:32:39;;;;;;;27.77;19.75;;;4.40;99.90;;;;;;4983614;28;20084;-73
2021/11/09 05:35:05;;;;;;;27.55;17.67;;;4.20;99.90;;;;;;4980404;28;21338;-74
2021/11/09 05:37:37;;;;;;;22.60;17.48;;;4.20;99.90;;;;;;4983534;28;20069;-74
2021/11/09 05:40:05;;;;;;;40.85;29.98;;;4.30;99.90;;;;;;4990296;28;20037;-74
2021/11/09 05:42:31;;;;;;;68.13;48.03;;;4.10;99.90;;;;;;4974060;28;20042;-76
2021/11/09 05:44:57;;;;;;;50.00;40.40;;;4.20;99.90;;;;;;4987178;28;20023;-73
2021/11/09 05:47:24;;;;;;;33.45;22.00;;;4.10;99.90;;;;;;4984330;28;20026;-72
2021/11/09 05:49:49;;;;;;;18.92;14.40;;;4.10;99.90;;;;;;4981835;28;20480;-72
2021/11/09 05:52:15;;;;;;;17.38;11.82;;;4.20;99.90;;;;;;4982756;28;20034;-72
2021/11/09 05:54:41;;;;;;;15.52;11.40;;;4.20;99.90;;;;;;4975213;28;20121;-72
2021/11/09 05:57:06;;;;;;;10.98;8.07;;;4.20;99.90;;;;;;4975296;28;20022;-74
2021/11/09 05:59:32;;;;;;;11.50;9.15;;;4.10;99.90;;;;;;4992066;28;20058;-73
2021/11/09 06:01:58;;;;;;;16.45;9.32;;;4.20;99.90;;;;;;4983712;28;20065;-74
2021/11/09 06:04:25;;;;;;;16.80;9.90;;;4.10;99.90;;;;;;4986894;28;20019;-77
2021/11/09 06:06:51;;;;;;;15.70;9.98;;;4.10;99.90;;;;;;4985273;28;20055;-77
2021/11/09 06:09:17;;;;;;;23.27;15.95;;;4.00;99.90;;;;;;4980028;28;20037;-75
2021/11/09 06:11:43;;;;;;;16.15;11.00;;;3.80;99.90;;;;;;4982605;28;20082;-74
2021/11/09 06:14:08;;;;;;;15.50;10.50;;;3.70;99.90;;;;;;4991732;28;20037;-74
2021/11/09 06:16:35;;;;;;;15.63;9.50;;;3.60;99.90;;;;;;4984250;28;20505;-73
2021/11/09 06:19:01;;;;;;;22.17;12.70;;;3.70;99.90;;;;;;4975316;28;20037;-74
2021/11/09 06:21:26;;;;;;;14.90;8.82;;;3.60;99.90;;;;;;4984989;28;20031;-74
2021/11/09 06:23:53;;;;;;;12.65;8.40;;;3.60;99.90;;;;;;4981049;28;20400;-74
2021/11/09 06:26:21;;;;;;;17.17;10.10;;;3.60;99.90;;;;;;4983962;28;20371;-75
2021/11/09 06:28:47;;;;;;;17.25;11.23;;;3.70;99.90;;;;;;4987586;28;20022;-74
2021/11/09 06:31:13;;;;;;;24.40;13.20;;;3.50;99.90;;;;;;4973207;28;20113;-74
2021/11/09 06:33:38;;;;;;;18.38;12.02;;;3.60;99.90;;;;;;4978588;28;20101;-74
2021/11/09 06:36:04;;;;;;;16.13;11.00;;;3.40;99.90;;;;;;4975558;28;20426;-74
2021/11/09 06:38:30;;;;;;;20.83;11.48;;;3.50;99.90;;;;;;4986066;28;20026;-74
2021/11/09 06:40:55;;;;;;;18.17;10.15;;;3.40;99.90;;;;;;4984537;28;20030;-74
2021/11/09 06:43:21;;;;;;;15.05;11.63;;;3.40;99.90;;;;;;4979650;28;20041;-73
2021/11/09 06:45:47;;;;;;;21.98;14.25;;;3.40;99.90;;;;;;4982472;28;20026;-74
2021/11/09 06:48:13;;;;;;;19.42;14.90;;;3.50;99.90;;;;;;4972917;28;20031;-73
2021/11/09 06:50:39;;;;;;;20.55;15.13;;;3.40;99.90;;;;;;4974057;28;20015;-74
2021/11/09 06:53:04;;;;;;;26.52;15.95;;;3.30;99.90;;;;;;4987378;28;20033;-76
2021/11/09 06:55:30;;;;;;;18.70;14.05;;;3.40;99.90;;;;;;4974057;28;20035;-73
2021/11/09 06:57:56;;;;;;;69.25;17.20;;;3.50;99.90;;;;;;4974097;28;20432;-76
2021/11/09 07:00:23;;;;;;;141.15;21.35;;;3.50;99.90;;;;;;4983986;28;20033;-74
2021/11/09 07:02:49;;;;;;;267.30;24.13;;;3.70;99.90;;;;;;4980768;28;20027;-75
2021/11/09 07:05:17;;;;;;;234.90;21.92;;;3.70;99.90;;;;;;4983256;28;20042;-75
2021/11/09 07:07:43;;;;;;;280.40;28.73;;;3.70;99.90;;;;;;4973784;28;20027;-75
2021/11/09 07:10:09;;;;;;;326.23;32.15;;;3.70;99.90;;;;;;4984185;28;20029;-73
2021/11/09 07:12:36;;;;;;;214.80;25.45;;;3.80;99.90;;;;;;4976068;28;20027;-73
2021/11/09 07:15:02;;;;;;;543.88;43.30;;;3.80;99.90;;;;;;4973649;28;20038;-72
2021/11/09 07:17:28;;;;;;;544.30;34.10;;;3.80;99.90;;;;;;4985081;28;20035;-73
2021/11/09 07:19:53;;;;;;;481.15;33.72;;;3.80;99.90;;;;;;4973648;28;20030;-72
2021/11/09 07:22:21;;;;;;;551.35;33.17;;;3.80;99.90;;;;;;4973382;28;20528;-72
2021/11/09 07:24:47;;;;;;;350.33;27.80;;;3.80;99.90;;;;;;4972474;28;20086;-72
2021/11/09 07:27:13;;;;;;;389.20;30.52;;;3.80;99.90;;;;;;4990957;28;20027;-72
2021/11/09 07:29:44;;;;;;;128.10;22.27;;;3.80;99.90;;;;;;4981793;28;20023;-72
2021/11/09 07:32:10;;;;;;;184.57;29.52;;;3.70;99.90;;;;;;4978418;28;20019;-72
2021/11/09 07:34:36;;;;;;;108.70;24.75;;;3.80;99.90;;;;;;4981057;28;20033;-72
2021/11/09 07:37:02;;;;;;;34.35;16.20;;;3.90;99.90;;;;;;4973424;28;20037;-72
2021/11/09 07:39:27;;;;;;;27.65;16.35;;;3.80;99.90;;;;;;4971994;28;20122;-72
2021/11/09 07:41:53;;;;;;;19.30;15.25;;;3.80;99.90;;;;;;4986088;28;20484;-72
2021/11/09 07:44:19;;;;;;;16.27;13.13;;;3.90;99.90;;;;;;4984775;28;20018;-73
2021/11/09 07:46:44;;;;;;;25.45;19.48;;;3.80;99.90;;;;;;4978437;28;20026;-72
2021/11/09 07:49:10;;;;;;;21.55;17.83;;;3.70;99.90;;;;;;4979171;28;20026;-73
2021/11/09 07:51:36;;;;;;;21.42;19.13;;;3.70;99.90;;;;;;4972863;28;20038;-73
2021/11/09 07:54:02;;;;;;;20.85;16.50;;;3.90;99.90;;;;;;4971957;28;20193;-73
2021/11/09 07:56:46;;;;;;;48.08;25.35;;;4.00;99.90;;;;;;4971777;28;20034;-72
2021/11/09 08:01:56;;;;;;;267.15;34.67;;;3.80;99.90;;;;;;4981734;28;20034;-72
2021/11/09 08:04:35;;;;;;;240.07;43.45;;;3.90;99.90;;;;;;4978071;28;20034;-72
2021/11/09 08:07:22;;;;;;;317.05;39.28;;;3.90;99.90;;;;;;4980842;28;20018;-73
2021/11/09 08:09:48;;;;;;;46.88;24.42;;;3.90;99.90;;;;;;4969266;28;20076;-74
2021/11/09 08:12:13;;;;;;;65.25;24.52;;;3.90;99.90;;;;;;4976377;28;20114;-73
2021/11/09 08:14:39;;;;;;;153.82;33.08;;;4.00;99.90;;;;;;4971616;28;20027;-74
2021/11/09 08:17:05;;;;;;;34.58;21.88;;;4.10;99.90;;;;;;4984475;28;20038;-72
2021/11/09 08:19:31;;;;;;;25.00;19.33;;;4.30;99.90;;;;;;4979353;28;20110;-72
2021/11/09 08:21:58;;;;;;;21.63;16.45;;;4.20;99.90;;;;;;4976092;28;20109;-72
2021/11/09 08:24:25;;;;;;;18.30;15.32;;;4.30;99.90;;;;;;4964816;28;20034;-72
2021/11/09 08:26:53;;;;;;;20.10;14.68;;;4.40;99.90;;;;;;4980773;28;20014;-74
2021/11/09 08:29:23;;;;;;;14.43;12.57;;;4.40;99.90;;;;;;4982822;28;20037;-72
2021/11/09 08:31:49;;;;;;;18.65;12.23;;;4.50;99.90;;;;;;4972438;28;20018;-73
2021/11/09 08:34:15;;;;;;;14.68;12.05;;;4.60;99.90;;;;;;4976178;28;20019;-72
2021/11/09 08:36:44;;;;;;;16.25;11.82;;;4.70;99.90;;;;;;4971418;28;20027;-73
2021/11/09 08:39:13;;;;;;;18.20;12.35;;;4.80;99.90;;;;;;4972708;28;20046;-72
2021/11/09 08:41:43;;;;;;;14.77;11.07;;;4.90;99.90;;;;;;4972344;28;20073;-72
2021/11/09 08:44:20;;;;;;;15.48;11.02;;;4.90;99.90;;;;;;4962847;28;20148;-72
2021/11/09 08:46:52;;;;;;;17.10;11.50;;;4.90;99.90;;;;;;4969878;28;20497;-72
2021/11/09 08:49:19;;;;;;;17.00;11.68;;;5.00;99.90;;;;;;4971406;28;20035;-72
2021/11/09 08:51:47;;;;;;;15.73;10.82;;;5.00;99.90;;;;;;4976743;28;20050;-72
2021/11/09 08:54:21;;;;;;;14.77;10.35;;;5.10;99.90;;;;;;4980370;28;20026;-73
2021/11/09 09:05:04;;;;;;;19.45;11.10;;;5.50;99.90;;;;;;4973507;28;20037;-75
2021/11/09 09:07:30;;;;;;;15.88;10.73;;;5.50;99.90;;;;;;4978902;28;20027;-72
2021/11/09 09:09:57;;;;;;;16.35;11.13;;;5.60;99.90;;;;;;4976013;28;20030;-74
2021/11/09 09:12:24;;;;;;;14.40;10.18;;;5.60;99.90;;;;;;4974530;28;20412;-74
2021/11/09 09:14:51;;;;;;;15.63;9.57;;;5.70;99.90;;;;;;4983894;28;20029;-74
2021/11/09 09:17:17;;;;;;;15.68;10.07;;;5.80;99.90;;;;;;4981989;28;20135;-74
2021/11/09 09:19:49;;;;;;;14.07;8.60;;;6.00;99.90;;;;;;4986136;28;20026;-74
2021/11/09 09:22:16;;;;;;;18.50;9.57;;;6.00;99.90;;;;;;4979235;28;20018;-73
2021/11/09 09:27:18;;;;;;;13.73;8.60;;;6.10;99.90;;;;;;4975888;28;20030;-72
2021/11/09 09:56:57;;;;;;;13.48;10.25;;;6.60;99.90;;;;;;4986409;28;20022;-72
2021/11/09 09:59:26;;;;;;;14.82;10.63;;;6.50;99.90;;;;;;4975248;28;20030;-73
2021/11/09 10:02:08;;;;;;;13.85;10.23;;;6.50;99.90;;;;;;4974783;28;20031;-73
2021/11/09 10:04:36;;;;;;;14.40;10.55;;;6.60;99.90;;;;;;4974990;28;20489;-73
2021/11/09 10:07:03;;;;;;;11.48;9.60;;;6.60;99.90;;;;;;4975028;28;20042;-73
2021/11/09 10:09:35;;;;;;;13.38;9.55;;;6.80;99.90;;;;;;4987898;28;20030;-72
2021/11/09 10:12:21;;;;;;;13.18;9.48;;;6.80;99.90;;;;;;4974192;28;20023;-73
2021/11/09 10:14:54;;;;;;;11.25;8.20;;;6.80;99.90;;;;;;4975069;28;20015;-73
2021/11/09 10:17:23;;;;;;;12.75;9.50;;;6.80;99.90;;;;;;4987593;28;20477;-72
2021/11/09 10:19:49;;;;;;;11.60;8.90;;;6.90;99.90;;;;;;4985372;28;20018;-73
2021/11/09 10:22:21;;;;;;;12.07;8.65;;;6.90;99.90;;;;;;4979503;28;20392;-72
2021/11/09 10:25:15;;;;;;;12.20;8.82;;;7.00;99.90;;;;;;4973867;28;20023;-72
2021/11/09 10:27:43;;;;;;;11.40;9.15;;;7.00;99.90;;;;;;4976247;28;20066;-72
2021/11/09 10:30:21;;;;;;;12.70;8.95;;;7.00;99.90;;;;;;4979645;28;20034;-73
2021/11/09 10:32:48;;;;;;;10.88;8.75;;;7.20;99.90;;;;;;4983634;28;20023;-73
2021/11/09 10:35:15;;;;;;;10.65;8.57;;;7.30;99.90;;;;;;4978648;28;20042;-73
2021/11/09 10:37:47;;;;;;;12.30;9.18;;;7.40;99.90;;;;;;4984816;28;20388;-72
2021/11/09 10:40:32;;;;;;;13.50;8.57;;;7.30;99.90;;;;;;4976133;28;20026;-72
2021/11/09 10:43:01;;;;;;;9.35;8.00;;;7.30;99.90;;;;;;4974421;28;20085;-73
2021/11/09 10:45:31;;;;;;;9.00;3.83;;;7.30;99.90;;;;;;4982127;28;20030;-72
2021/11/09 10:48:18;;;;;;;5.82;3.00;;;7.50;99.90;;;;;;4978734;28;20081;-73
2021/11/09 10:50:44;;;;;;;4.95;3.03;;;7.60;99.90;;;;;;4973899;28;20031;-73
2021/11/09 11:06:42;;;;;;;3.15;2.13;;;8.00;99.90;;;;;;4976511;28;20432;-73
2021/11/09 11:09:08;;;;;;;6.35;2.30;;;7.90;99.90;;;;;;4982317;28;20034;-73
2021/11/09 11:11:45;;;;;;;4.05;2.22;;;7.90;99.90;;;;;;4978031;28;20019;-73
2021/11/09 11:14:27;;;;;;;4.47;2.45;;;7.90;99.90;;;;;;4984400;28;20109;-73
2021/11/09 11:16:55;;;;;;;3.75;2.30;;;8.00;99.90;;;;;;4984570;28;20116;-73
2021/11/09 11:19:38;;;;;;;4.40;2.38;;;8.10;99.90;;;;;;4981773;28;20500;-73
2021/11/09 11:22:05;;;;;;;3.25;2.30;;;8.10;99.90;;;;;;4990777;28;20030;-74
2021/11/09 11:24:32;;;;;;;3.78;2.35;;;8.10;99.90;;;;;;4983780;28;20392;-73
2021/11/09 11:26:58;;;;;;;4.93;2.80;;;8.10;99.90;;;;;;4987816;28;20026;-72
2021/11/09 11:29:27;;;;;;;4.72;2.70;;;8.20;99.90;;;;;;4984655;28;20057;-73
2021/11/09 11:31:55;;;;;;;4.82;3.17;;;8.20;99.90;;;;;;4982859;28;20027;-73
2021/11/09 11:34:22;;;;;;;6.80;2.67;;;8.20;99.90;;;;;;4988164;28;20057;-73
2021/11/09 11:36:49;;;;;;;4.43;2.78;;;8.20;99.90;;;;;;4984032;28;20011;-72
2021/11/09 11:39:16;;;;;;;5.22;2.92;;;8.30;99.90;;;;;;4988316;28;20066;-72
2021/11/09 11:41:45;;;;;;;6.13;2.97;;;8.40;99.90;;;;;;4979775;28;20074;-73
2021/11/09 11:44:19;;;;;;;5.13;3.03;;;8.30;99.90;;;;;;4981241;28;20034;-73
2021/11/09 11:46:46;;;;;;;6.43;3.38;;;8.40;99.90;;;;;;4981106;28;20030;-72
2021/11/09 11:49:14;;;;;;;6.60;2.90;;;8.40;99.90;;;;;;4986688;28;20174;-72
2021/11/09 11:51:46;;;;;;;5.15;3.20;;;8.40;99.90;;;;;;4984843;28;20519;-72
2021/11/09 11:54:15;;;;;;;8.68;3.72;;;8.40;99.90;;;;;;4984586;28;20046;-73
2021/11/09 11:56:44;;;;;;;6.38;3.17;;;8.20;99.90;;;;;;4983406;28;20026;-73
2021/11/09 11:59:37;;;;;;;6.15;3.22;;;8.10;99.90;;;;;;4982822;28;20112;-71
2021/11/09 12:02:05;;;;;;;6.13;3.40;;;8.20;99.90;;;;;;4983995;28;20030;-72
2021/11/09 12:04:43;;;;;;;6.75;3.17;;;8.20;99.90;;;;;;4981690;28;20412;-73
2021/11/09 12:07:18;;;;;;;7.40;3.25;;;8.30;99.90;;;;;;4984619;28;20476;-72
2021/11/09 12:09:47;;;;;;;4.60;2.50;;;8.30;99.90;;;;;;4977156;28;20027;-73
2021/11/09 12:12:18;;;;;;;5.35;2.42;;;8.50;99.90;;;;;;4983914;28;20026;-73
2021/11/09 12:14:56;;;;;;;4.40;2.85;;;8.60;99.90;;;;;;4983141;28;20081;-73
2021/11/09 12:17:41;;;;;;;5.03;2.42;;;8.60;99.90;;;;;;4981435;28;20037;-72
2021/11/09 12:20:14;;;;;;;3.30;2.20;;;8.60;99.90;;;;;;4988477;28;20022;-73
2021/11/09 12:22:52;;;;;;;4.25;2.20;;;8.60;99.90;;;;;;4981176;28;20025;-73
2021/11/09 12:25:33;;;;;;;4.20;2.13;;;8.60;99.90;;;;;;4973443;28;20023;-73
2021/11/09 12:28:02;;;;;;;2.83;1.90;;;8.80;99.90;;;;;;4971441;28;20023;-72
2021/11/09 12:30:34;;;;;;;11.95;2.60;;;8.60;99.90;;;;;;4987981;28;20022;-73
2021/11/09 12:33:15;;;;;;;4.45;2.20;;;8.70;99.90;;;;;;4990889;28;20019;-73
2021/11/09 12:35:45;;;;;;;3.22;1.75;;;8.70;99.90;;;;;;4974525;28;20061;-73
2021/11/09 12:38:21;;;;;;;4.05;1.77;;;8.80;99.90;;;;;;4975237;28;20026;-73
2021/11/09 12:40:49;;;;;;;2.75;2.00;;;8.80;99.90;;;;;;4976499;28;20027;-72
2021/11/09 12:43:18;;;;;;;6.80;1.83;;;8.80;99.90;;;;;;4976494;28;20027;-73
2021/11/09 12:46:02;;;;;;;7.25;2.05;;;8.80;99.90;;;;;;4975347;28;20023;-72
2021/11/09 12:48:33;;;;;;;8.43;2.25;;;8.90;99.90;;;;;;4976508;28;20155;-73
2021/11/09 12:51:05;;;;;;;4.75;2.30;;;8.90;99.90;;;;;;4976245;28;20096;-73
2021/11/09 12:53:34;;;;;;;4.50;2.20;;;8.80;99.90;;;;;;4987626;28;20077;-73
2021/11/09 12:56:12;;;;;;;4.80;2.10;;;8.90;99.90;;;;;;4989136;28;20025;-73
2021/11/09 12:58:54;;;;;;;4.25;1.95;;;8.80;99.90;;;;;;4985305;28;20031;-73
2021/11/09 13:04:31;;;;;;;3.90;1.90;;;8.90;99.90;;;;;;4976788;28;20389;-73
2021/11/09 13:09:52;;;;;;;5.57;2.10;;;9.00;99.90;;;;;;4976387;28;20034;-72
2021/11/09 13:12:23;;;;;;;4.38;2.40;;;9.00;99.90;;;;;;4990216;28;20038;-72
2021/11/09 13:14:51;;;;;;;7.53;2.30;;;9.00;99.90;;;;;;4994262;28;20093;-72
2021/11/09 13:17:28;;;;;;;3.25;2.20;;;9.00;99.90;;;;;;4979998;28;20033;-72
2021/11/09 13:20:03;;;;;;;2.60;1.75;;;9.00;99.90;;;;;;4975910;28;20026;-73
2021/11/09 13:22:29;;;;;;;3.65;2.00;;;9.00;99.90;;;;;;4974525;28;20023;-72
2021/11/09 13:25:06;;;;;;;3.55;1.98;;;9.00;99.90;;;;;;4987249;28;20022;-73
2021/11/09 13:27:39;;;;;;;4.10;1.90;;;8.90;99.90;;;;;;4995191;28;20050;-73
2021/11/09 13:30:19;;;;;;;5.15;2.42;;;9.00;99.90;;;;;;4981511;28;20539;-73
2021/11/09 13:32:54;;;;;;;3.47;2.10;;;8.90;99.90;;;;;;4974223;28;20022;-73
2021/11/09 13:35:36;;;;;;;4.30;2.03;;;9.00;99.90;;;;;;4974121;28;20050;-73
2021/11/09 13:38:08;;;;;;;3.65;2.50;;;9.00;99.90;;;;;;5003821;28;20033;-73
2021/11/09 13:40:35;;;;;;;7.75;2.08;;;9.00;99.90;;;;;;4963179;28;20023;-73
2021/11/09 13:43:04;;;;;;;5.90;2.17;;;9.00;99.90;;;;;;4975498;28;20046;-72
2021/11/09 13:45:30;;;;;;;4.32;2.20;;;9.10;99.90;;;;;;4974063;28;20027;-72
2021/11/09 13:47:55;;;;;;;3.13;2.08;;;9.00;99.90;;;;;;4973215;28;20401;-73
2021/11/09 13:50:21;;;;;;;5.25;2.00;;;9.00;99.90;;;;;;4979331;28;20114;-72
2021/11/09 13:52:49;;;;;;;3.95;1.88;;;9.00;99.90;;;;;;4993341;28;20050;-73
2021/11/09 13:55:17;;;;;;;4.95;1.80;;;9.00;99.90;;;;;;4986781;28;20098;-73
2021/11/09 13:57:44;;;;;;;6.60;2.50;;;9.00;99.90;;;;;;4975149;28;20027;-73
2021/11/09 14:00:24;;;;;;;6.10;1.95;;;9.00;99.90;;;;;;4974869;28;20500;-73
2021/11/09 14:03:04;;;;;;;5.82;2.10;;;9.00;99.90;;;;;;4974164;28;20030;-73
2021/11/09 14:11:18;;;;;;;3.88;1.70;;;9.10;99.90;;;;;;4994456;28;20031;-73
2021/11/09 14:14:06;;;;;;;2.92;1.50;;;9.20;99.90;;;;;;4981472;28;20019;-73
2021/11/09 14:16:41;;;;;;;2.80;1.52;;;9.10;99.90;;;;;;4974860;28;20396;-72
2021/11/09 14:19:13;;;;;;;2.90;2.00;;;9.10;99.90;;;;;;4974852;28;20118;-73
2021/11/09 14:21:42;;;;;;;3.63;1.52;;;9.20;99.90;;;;;;4974631;28;20389;-73
2021/11/09 14:24:20;;;;;;;4.57;1.85;;;9.10;99.90;;;;;;4974768;28;20023;-73
2021/11/09 14:26:58;;;;;;;2.63;1.48;;;9.10;99.90;;;;;;4961150;28;20023;-72
2021/11/09 14:29:25;;;;;;;2.78;1.58;;;9.10;99.90;;;;;;4993978;28;20416;-72
2021/11/09 14:32:28;;;;;;;3.50;1.60;;;9.00;99.90;;;;;;4978790;28;20027;-72
2021/11/09 14:35:18;;;;;;;2.17;1.80;;;9.10;99.90;;;;;;4931618;29;20098;-73
2021/11/09 14:38:04;;;;;;;3.58;1.70;;;9.10;99.90;;;;;;4970302;28;20034;-72
2021/11/09 14:40:42;;;;;;;2.47;1.70;;;9.10;99.90;;;;;;4979827;28;20037;-72
2021/11/09 14:43:16;;;;;;;3.40;1.75;;;9.10;99.90;;;;;;4977610;28;20038;-73
2021/11/09 14:48:10;;;;;;;3.00;1.88;;;9.10;99.90;;;;;;4974986;28;20113;-72
2021/11/09 14:50:52;;;;;;;4.85;2.20;;;9.00;99.90;;;;;;4972246;28;20146;-72
2021/11/09 14:53:30;;;;;;;4.40;2.30;;;9.00;99.90;;;;;;4977914;28;20073;-72
2021/11/09 14:56:06;;;;;;;3.47;2.25;;;9.00;99.90;;;;;;4993399;28;20065;-72
2021/11/09 14:58:34;;;;;;;3.72;2.10;;;8.90;99.90;;;;;;4985589;28;20198;-72
2021/11/09 15:01:21;;;;;;;3.47;2.00;;;9.00;99.90;;;;;;4972572;28;20098;-72
2021/11/09 15:03:58;;;;;;;5.10;2.00;;;8.90;99.90;;;;;;4972805;28;20037;-72
2021/11/09 15:06:37;;;;;;;4.97;2.17;;;8.90;99.90;;;;;;4982270;28;20485;-72
2021/11/09 15:09:32;;;;;;;4.32;2.08;;;8.90;99.90;;;;;;4994322;28;20492;-72
2021/11/09 15:25:42;;;;;;;3.75;1.92;;;8.40;99.90;;;;;;4981049;28;20559;-72
2021/11/09 15:28:21;;;;;;;4.45;2.45;;;8.30;99.90;;;;;;4976672;28;20472;-72
2021/11/09 15:31:07;;;;;;;9.32;2.60;;;8.20;99.90;;;;;;4983964;28;20400;-73
2021/11/09 15:33:35;;;;;;;5.23;2.23;;;8.10;99.90;;;;;;4977630;28;20034;-73
2021/11/09 15:38:39;;;;;;;4.68;1.98;;;7.90;99.90;;;;;;4986258;28;20054;-73
2021/11/09 15:41:05;;;;;;;3.05;1.90;;;7.90;99.90;;;;;;4983415;28;20026;-73